createdAt,value
2023-04-18T00:01:40.458Z,3.10
2023-04-18T00:04:47.889Z,3.20
2023-04-18T00:07:54.659Z,3.00
2023-04-18T00:11:01.270Z,3.00
2023-04-18T00:14:08.761Z,3.10
2023-04-18T00:17:16.245Z,3.00
2023-04-18T00:20:22.595Z,3.20
2023-04-18T00:23:30.393Z,3.10
2023-04-18T00:26:36.734Z,3.60
2023-04-18T00:29:43.032Z,3.00
2023-04-18T00:32:49.648Z,3.00
2023-04-18T00:35:57.306Z,3.50
2023-04-18T00:39:03.776Z,2.90
2023-04-18T00:42:11.804Z,2.90
2023-04-18T00:45:18.443Z,3.00
2023-04-18T00:48:25.625Z,3.10
2023-04-18T00:51:32.670Z,3.20
2023-04-18T00:54:39.395Z,3.20
2023-04-18T00:57:46.521Z,3.00
2023-04-18T01:00:54.827Z,3.20
2023-04-18T01:04:01.452Z,3.40
2023-04-18T01:07:08.551Z,3.60
2023-04-18T01:10:15.230Z,3.50
2023-04-18T01:13:22.507Z,3.50
2023-04-18T01:16:29.689Z,3.20
2023-04-18T01:19:36.360Z,3.60
2023-04-18T01:22:43.239Z,3.50
2023-04-18T01:25:50.586Z,3.80
2023-04-18T01:28:58.568Z,3.30
2023-04-18T01:32:05.474Z,3.70
2023-04-18T01:35:12.841Z,3.60
2023-04-18T01:38:19.649Z,4.20
2023-04-18T01:41:26.239Z,3.70
2023-04-18T01:44:32.676Z,3.60
2023-04-18T01:47:39.520Z,3.70
2023-04-18T01:50:45.684Z,3.90
2023-04-18T01:53:52.446Z,3.90
2023-04-18T01:56:58.881Z,3.90
2023-04-18T02:00:06.567Z,3.90
2023-04-18T02:03:13.003Z,3.90
2023-04-18T02:06:19.406Z,4.30
2023-04-18T02:09:25.934Z,3.90
2023-04-18T02:12:32.793Z,4.20
2023-04-18T02:15:38.981Z,4.00
2023-04-18T02:18:46.862Z,3.80
2023-04-18T02:21:53.510Z,3.80
2023-04-18T02:24:59.584Z,4.00
2023-04-18T02:28:06.192Z,4.20
2023-04-18T02:31:14.897Z,4.20
2023-04-18T02:34:21.096Z,4.50
2023-04-18T02:37:27.447Z,4.40
2023-04-18T02:40:34.035Z,4.50
2023-04-18T02:43:40.464Z,4.20
2023-04-18T02:46:46.967Z,4.40
2023-04-18T02:49:53.492Z,4.70
2023-04-18T02:52:59.937Z,4.50
2023-04-18T02:56:06.464Z,4.60
2023-04-18T02:59:12.614Z,4.60
2023-04-18T03:02:18.843Z,4.70
2023-04-18T03:05:25.297Z,4.40
2023-04-18T03:08:31.319Z,4.60
2023-04-18T03:11:37.516Z,4.30
2023-04-18T03:14:44.534Z,4.50
2023-04-18T03:17:51.472Z,4.60
2023-04-18T03:20:57.726Z,4.80
2023-04-18T03:24:03.860Z,4.10
2023-04-18T03:27:10.437Z,4.40
2023-04-18T03:30:16.836Z,4.90
2023-04-18T03:33:24.043Z,4.30
2023-04-18T03:36:31.506Z,4.30
2023-04-18T03:39:37.524Z,4.70
2023-04-18T03:42:43.696Z,4.40
2023-04-18T03:45:50.227Z,4.40
2023-04-18T03:48:56.259Z,4.80
2023-04-18T03:52:02.621Z,4.70
2023-04-18T03:55:10.189Z,4.60
2023-04-18T03:58:18.000Z,4.70
2023-04-18T04:01:24.323Z,4.50
2023-04-18T04:04:30.622Z,4.60
2023-04-18T04:07:37.041Z,4.90
2023-04-18T04:10:43.544Z,4.30
2023-04-18T04:13:49.494Z,4.40
2023-04-18T04:16:55.807Z,4.60
2023-04-18T04:20:02.076Z,4.60
2023-04-18T04:23:08.793Z,4.20
2023-04-18T04:26:16.060Z,4.20
2023-04-18T04:29:23.998Z,4.70
2023-04-18T04:32:30.280Z,4.70
2023-04-18T04:35:37.158Z,4.80
2023-04-18T04:38:44.496Z,4.80
2023-04-18T04:41:53.508Z,4.70
2023-04-18T04:44:59.886Z,4.90
2023-04-18T04:48:06.806Z,4.70
2023-04-18T04:51:12.868Z,4.40
2023-04-18T04:54:19.411Z,4.40
2023-04-18T04:57:25.622Z,4.40
2023-04-18T05:00:32.136Z,4.50
2023-04-18T05:03:38.630Z,4.40
2023-04-18T05:06:46.535Z,4.30
2023-04-18T05:09:53.733Z,4.40
2023-04-18T05:13:00.054Z,4.60
2023-04-18T05:16:07.964Z,4.20
2023-04-18T05:19:14.306Z,4.30
2023-04-18T05:22:20.772Z,4.50
2023-04-18T05:25:27.466Z,4.60
2023-04-18T05:28:34.181Z,4.60
2023-04-18T05:31:40.490Z,4.40
2023-04-18T05:34:47.198Z,4.60
2023-04-18T05:37:54.430Z,4.60
2023-04-18T05:41:00.703Z,4.70
2023-04-18T05:44:07.405Z,4.80
2023-04-18T05:47:13.991Z,5.10
2023-04-18T05:50:21.698Z,5.30
2023-04-18T05:53:28.176Z,4.80
2023-04-18T05:56:34.342Z,4.90
2023-04-18T05:59:40.813Z,5.10
2023-04-18T06:02:47.453Z,4.80
2023-04-18T06:05:54.276Z,5.00
2023-04-18T06:09:00.588Z,4.60
2023-04-18T06:12:07.684Z,4.50
2023-04-18T06:15:14.699Z,4.90
2023-04-18T06:18:21.671Z,4.80
2023-04-18T06:21:28.027Z,4.40
2023-04-18T06:24:34.139Z,4.60
2023-04-18T06:27:40.429Z,4.90
2023-04-18T06:30:46.913Z,4.70
2023-04-18T06:33:53.740Z,4.70
2023-04-18T06:37:00.504Z,3.90
2023-04-18T06:40:08.093Z,4.10
2023-04-18T06:43:14.316Z,4.40
2023-04-18T06:46:20.737Z,4.00
2023-04-18T06:49:27.263Z,4.30
2023-04-18T06:52:33.386Z,4.50
2023-04-18T06:55:41.075Z,4.20
2023-04-18T06:58:47.517Z,4.40
2023-04-18T07:01:54.296Z,4.20
2023-04-18T07:05:00.564Z,4.40
2023-04-18T07:08:07.110Z,3.70
2023-04-18T07:11:14.368Z,3.80
2023-04-18T07:14:22.185Z,3.70
2023-04-18T07:17:28.651Z,3.20
2023-04-18T07:20:34.896Z,3.10
2023-04-18T07:23:41.092Z,3.30
2023-04-18T07:26:47.645Z,2.70
2023-04-18T07:29:53.781Z,2.80
2023-04-18T07:33:00.459Z,3.00
2023-04-18T07:36:07.768Z,2.60
2023-04-18T07:39:14.112Z,2.90
2023-04-18T07:42:20.313Z,3.50
2023-04-18T07:45:26.683Z,3.20
2023-04-18T07:48:33.094Z,3.50
2023-04-18T07:51:39.204Z,3.20
2023-04-18T07:54:45.578Z,3.10
2023-04-18T07:57:52.440Z,2.90
2023-04-18T08:00:58.846Z,3.10
2023-04-18T08:04:05.280Z,2.70
2023-04-18T08:07:11.679Z,2.60
2023-04-18T08:10:17.880Z,2.20
2023-04-18T08:13:24.131Z,2.10
2023-04-18T08:16:30.570Z,2.10
2023-04-18T08:19:36.850Z,2.10
2023-04-18T08:22:57.756Z,2.30
2023-04-18T08:26:10.164Z,2.30
2023-04-18T08:29:16.756Z,2.10
2023-04-18T08:32:22.962Z,2.00
2023-04-18T08:35:29.737Z,2.00
2023-04-18T08:38:36.085Z,1.90
2023-04-18T08:41:44.568Z,2.10
2023-04-18T08:44:51.507Z,1.90
2023-04-18T08:48:01.629Z,2.00
2023-04-18T08:51:08.193Z,2.10
2023-04-18T08:54:15.299Z,2.00
2023-04-18T08:57:27.105Z,2.10
2023-04-18T09:00:33.518Z,2.00
2023-04-18T09:03:41.390Z,2.00
2023-04-18T09:06:54.296Z,2.00
2023-04-18T09:10:00.494Z,2.00
2023-04-18T09:13:08.253Z,2.10
2023-04-18T09:16:15.233Z,1.90
2023-04-18T09:19:21.893Z,2.30
2023-04-18T09:22:28.428Z,2.00
2023-04-18T09:25:40.103Z,2.00
2023-04-18T09:28:54.599Z,1.80
2023-04-18T09:32:02.379Z,1.90
2023-04-18T09:35:09.717Z,2.00
2023-04-18T09:38:16.027Z,2.10
2023-04-18T09:41:22.966Z,1.90
2023-04-18T09:44:29.258Z,1.90
2023-04-18T09:47:37.577Z,1.70
2023-04-18T09:50:44.984Z,1.90
2023-04-18T09:53:51.323Z,2.20
2023-04-18T09:56:59.114Z,1.80
2023-04-18T10:00:14.433Z,2.00
2023-04-18T10:03:22.698Z,2.00
2023-04-18T10:06:29.829Z,2.00
2023-04-18T10:09:39.804Z,2.00
2023-04-18T10:12:48.655Z,2.20
2023-04-18T10:15:55.273Z,2.00
2023-04-18T10:19:26.061Z,2.10
2023-04-18T10:22:34.056Z,2.00
2023-04-18T10:25:53.361Z,2.40
2023-04-18T10:29:00.960Z,2.40
2023-04-18T10:32:10.117Z,2.30
2023-04-18T10:35:16.626Z,2.40
2023-04-18T10:38:26.391Z,2.30
2023-04-18T10:44:38.046Z,2.10
2023-04-18T10:47:44.412Z,2.40
2023-04-18T10:51:16.248Z,2.30
2023-04-18T10:54:31.115Z,2.00
2023-04-18T10:57:48.673Z,2.10
2023-04-18T11:00:56.056Z,2.20
2023-04-18T11:04:02.923Z,2.20
2023-04-18T11:07:09.518Z,2.10
2023-04-18T11:10:17.924Z,2.60
2023-04-18T11:13:24.354Z,2.20
2023-04-18T11:16:32.565Z,2.20
2023-04-18T11:19:39.002Z,2.00
2023-04-18T11:22:50.446Z,1.90
2023-04-18T11:25:58.512Z,1.90
2023-04-18T11:29:05.095Z,2.00
2023-04-18T11:32:12.045Z,1.80
2023-04-18T11:35:18.865Z,1.90
2023-04-18T11:38:31.798Z,1.80
2023-04-18T11:41:38.087Z,1.90
2023-04-18T11:44:49.340Z,2.10
2023-04-18T11:47:58.688Z,2.00
2023-04-18T11:51:05.073Z,2.10
2023-04-18T11:54:41.248Z,1.90
2023-04-18T11:57:53.311Z,2.10
2023-04-18T12:00:59.519Z,2.10
2023-04-18T12:04:07.470Z,1.80
2023-04-18T12:07:14.164Z,2.00
2023-04-18T12:10:30.717Z,1.90
2023-04-18T12:13:37.646Z,2.10
2023-04-18T12:16:44.253Z,1.90
2023-04-18T12:19:53.677Z,2.10
2023-04-18T12:22:59.639Z,2.20
2023-04-18T12:26:07.304Z,2.00
2023-04-18T12:29:13.746Z,2.00
2023-04-18T12:32:22.128Z,1.80
2023-04-18T12:35:28.990Z,1.90
2023-04-18T12:38:36.489Z,1.90
2023-04-18T12:41:42.609Z,1.90
2023-04-18T12:44:48.781Z,1.80
2023-04-18T12:47:55.582Z,1.90
2023-04-18T12:51:02.019Z,1.90
2023-04-18T12:54:08.635Z,2.20
2023-04-18T12:57:14.676Z,1.80
2023-04-18T13:00:23.588Z,2.00
2023-04-18T13:03:29.905Z,2.10
2023-04-18T13:06:36.371Z,2.00
2023-04-18T13:09:42.389Z,1.90
2023-04-18T13:12:49.940Z,1.90
2023-04-18T13:15:56.466Z,1.80
2023-04-18T13:19:02.606Z,2.20
2023-04-18T13:22:09.376Z,2.10
2023-04-18T13:25:16.745Z,2.00
2023-04-18T13:28:22.928Z,2.00
2023-04-18T13:31:30.292Z,1.70
2023-04-18T13:34:38.217Z,1.70
2023-04-18T13:37:46.415Z,1.70
2023-04-18T13:41:04.401Z,1.80
2023-04-18T13:44:15.065Z,1.90
2023-04-18T13:47:22.078Z,1.90
2023-04-18T13:50:28.229Z,1.60
2023-04-18T13:53:34.355Z,1.80
2023-04-18T13:56:40.525Z,1.80
2023-04-18T13:59:46.938Z,2.10
2023-04-18T14:02:53.176Z,1.90
2023-04-18T14:05:59.714Z,1.80
2023-04-18T14:09:07.296Z,2.20
2023-04-18T14:12:13.968Z,2.10
2023-04-18T14:15:20.410Z,2.40
2023-04-18T14:18:26.977Z,2.30
2023-04-18T14:21:33.295Z,2.00
2023-04-18T14:24:39.470Z,1.90
2023-04-18T14:27:49.494Z,2.40
2023-04-18T14:30:58.088Z,2.50
2023-04-18T14:34:04.537Z,2.50
2023-04-18T14:37:11.615Z,2.30
2023-04-18T14:40:18.138Z,2.50
2023-04-18T14:43:24.397Z,2.40
2023-04-18T14:46:30.918Z,2.20
2023-04-18T14:49:37.705Z,2.00
2023-04-18T14:52:44.268Z,2.30
2023-04-18T14:55:50.804Z,2.30
2023-04-18T14:58:56.987Z,2.20
2023-04-18T15:02:03.894Z,2.10
2023-04-18T15:05:11.586Z,2.30
2023-04-18T15:08:18.096Z,2.50
2023-04-18T15:11:24.667Z,2.80
2023-04-18T15:14:32.321Z,2.80
2023-04-18T15:17:39.335Z,2.50
2023-04-18T15:20:45.735Z,2.50
2023-04-18T15:23:51.664Z,2.60
2023-04-18T15:26:58.801Z,2.40
2023-04-18T15:30:05.871Z,2.50
2023-04-18T15:33:12.888Z,2.50
2023-04-18T15:36:19.395Z,2.40
2023-04-18T15:39:26.689Z,2.30
2023-04-18T15:42:33.088Z,2.30
2023-04-18T15:45:41.335Z,2.00
2023-04-18T15:48:47.685Z,2.10
2023-04-18T15:51:54.087Z,2.10
2023-04-18T15:55:01.190Z,1.90
2023-04-18T15:58:07.822Z,2.20
2023-04-18T16:01:16.610Z,2.10
2023-04-18T16:04:23.915Z,2.20
2023-04-18T16:07:30.476Z,2.20
2023-04-18T16:10:36.894Z,2.10
2023-04-18T16:13:44.058Z,2.70
2023-04-18T16:16:50.332Z,2.90
2023-04-18T16:19:56.488Z,2.90
2023-04-18T16:23:02.742Z,3.10
2023-04-18T16:26:09.943Z,3.30
2023-04-18T16:29:16.060Z,3.70
2023-04-18T16:32:22.552Z,3.60
2023-04-18T16:35:29.191Z,3.90
2023-04-18T16:38:35.424Z,3.60
2023-04-18T16:41:41.658Z,3.90
2023-04-18T16:44:48.439Z,4.00
2023-04-18T16:47:54.884Z,5.60
2023-04-18T16:51:01.276Z,9.30
2023-04-18T16:54:08.726Z,6.90
2023-04-18T16:57:15.641Z,5.50
2023-04-18T17:00:22.459Z,4.60
2023-04-18T17:03:29.192Z,4.30
2023-04-18T17:06:35.526Z,5.00
2023-04-18T17:09:43.898Z,4.90
2023-04-18T17:12:51.266Z,4.70
2023-04-18T17:15:57.626Z,4.10
2023-04-18T17:19:03.738Z,4.60
2023-04-18T17:22:10.056Z,4.40
2023-04-18T17:25:16.720Z,4.40
2023-04-18T17:28:24.011Z,4.40
2023-04-18T17:31:30.527Z,4.50
2023-04-18T17:34:38.133Z,4.20
2023-04-18T17:37:44.502Z,4.00
2023-04-18T17:40:58.794Z,4.60
2023-04-18T17:44:05.406Z,4.10
2023-04-18T17:47:11.747Z,4.30
2023-04-18T17:50:18.280Z,4.40
2023-04-18T17:53:25.088Z,4.60
2023-04-18T17:56:31.930Z,3.50
2023-04-18T17:59:38.953Z,4.00
2023-04-18T18:02:45.340Z,4.40
2023-04-18T18:05:53.012Z,4.50
2023-04-18T18:09:04.890Z,4.70
2023-04-18T18:12:11.600Z,4.30
2023-04-18T18:15:19.320Z,4.60
2023-04-18T18:18:26.845Z,4.80
2023-04-18T18:21:33.286Z,5.30
2023-04-18T18:24:39.674Z,6.00
2023-04-18T18:27:45.928Z,6.30
2023-04-18T18:30:52.473Z,5.80
2023-04-18T18:33:59.011Z,4.60
2023-04-18T18:37:05.675Z,4.50
2023-04-18T18:40:14.077Z,4.70
2023-04-18T18:43:26.450Z,4.30
2023-04-18T18:46:32.838Z,4.70
2023-04-18T18:49:39.107Z,4.40
2023-04-18T18:52:45.467Z,4.50
2023-04-18T18:55:51.628Z,4.30
2023-04-18T18:58:57.856Z,4.30
2023-04-18T19:02:03.936Z,4.50
2023-04-18T19:05:12.848Z,4.60
2023-04-18T19:08:19.366Z,4.40
2023-04-18T19:11:26.862Z,4.40
2023-04-18T19:14:33.172Z,4.50
2023-04-18T19:17:39.531Z,5.00
2023-04-18T19:20:46.842Z,4.70
2023-04-18T19:23:52.960Z,4.90
2023-04-18T19:26:59.893Z,5.10
2023-04-18T19:30:07.149Z,5.40
2023-04-18T19:33:13.952Z,5.40
2023-04-18T19:36:22.606Z,5.50
2023-04-18T19:39:29.030Z,5.40
2023-04-18T19:42:35.927Z,5.60
2023-04-18T19:45:42.522Z,5.80
2023-04-18T19:48:48.792Z,5.10
2023-04-18T19:51:55.050Z,5.70
2023-04-18T19:55:01.698Z,5.70
2023-04-18T19:58:08.397Z,5.90
2023-04-18T20:01:15.312Z,5.30
2023-04-18T20:04:22.409Z,5.60
2023-04-18T20:07:29.192Z,5.30
2023-04-18T20:10:37.493Z,5.00
2023-04-18T20:13:43.705Z,4.80
2023-04-18T20:16:50.217Z,4.30
2023-04-18T20:19:57.199Z,4.50
2023-04-18T20:23:03.662Z,4.20
2023-04-18T20:26:10.323Z,4.30
2023-04-18T20:29:16.658Z,4.30
2023-04-18T20:32:22.989Z,3.90
2023-04-18T20:35:29.863Z,4.00
2023-04-18T20:38:37.032Z,3.90
2023-04-18T20:41:46.560Z,4.00
2023-04-18T20:44:54.811Z,4.30
2023-04-18T20:48:02.067Z,4.10
2023-04-18T20:51:08.691Z,4.00
2023-04-18T20:54:15.529Z,3.90
2023-04-18T20:57:22.348Z,4.30
2023-04-18T21:00:29.098Z,4.10
2023-04-18T21:03:35.505Z,4.20
2023-04-18T21:06:41.835Z,3.90
2023-04-18T21:09:48.133Z,4.20
2023-04-18T21:12:54.280Z,3.90
2023-04-18T21:16:00.955Z,4.10
2023-04-18T21:19:07.348Z,4.20
2023-04-18T21:22:14.626Z,3.80
2023-04-18T21:25:21.644Z,3.30
2023-04-18T21:28:27.875Z,3.50
2023-04-18T21:31:35.283Z,3.60
2023-04-18T21:34:41.751Z,3.50
2023-04-18T21:37:48.442Z,3.60
2023-04-18T21:40:54.634Z,3.50
2023-04-18T21:44:00.986Z,3.70
2023-04-18T21:47:07.433Z,3.60
2023-04-18T21:50:14.822Z,3.40
2023-04-18T21:53:21.054Z,3.70
2023-04-18T21:56:27.301Z,3.60
2023-04-18T21:59:33.400Z,3.60
2023-04-18T22:02:39.681Z,3.20
2023-04-18T22:05:48.163Z,3.30
2023-04-18T22:08:55.023Z,3.40
2023-04-18T22:12:03.501Z,3.60
2023-04-18T22:15:13.567Z,3.50
2023-04-18T22:18:20.672Z,3.60
2023-04-18T22:21:27.849Z,3.50
2023-04-18T22:24:33.872Z,3.30
2023-04-18T22:27:40.152Z,3.70
2023-04-18T22:30:46.501Z,3.40
2023-04-18T22:33:52.878Z,3.20
2023-04-18T22:36:59.105Z,3.40
2023-04-18T22:40:07.704Z,3.40
2023-04-18T22:43:14.099Z,3.50
2023-04-18T22:46:20.434Z,3.40
2023-04-18T22:49:27.635Z,3.50
2023-04-18T22:52:33.968Z,3.60
2023-04-18T22:55:42.265Z,3.50
2023-04-18T22:58:48.427Z,3.40
2023-04-18T23:01:54.744Z,3.60
2023-04-18T23:05:02.718Z,3.90
2023-04-18T23:08:09.548Z,3.60
2023-04-18T23:11:16.039Z,3.40
2023-04-18T23:14:22.670Z,3.30
2023-04-18T23:17:28.858Z,3.70
2023-04-18T23:20:36.401Z,3.40
2023-04-18T23:23:42.604Z,3.60
2023-04-18T23:26:48.846Z,3.50
2023-04-18T23:29:55.695Z,3.60
2023-04-18T23:33:01.918Z,3.70
2023-04-18T23:36:09.562Z,4.30
2023-04-18T23:39:18.559Z,4.50
2023-04-18T23:42:24.688Z,4.70
2023-04-18T23:45:31.172Z,5.10
2023-04-18T23:48:37.490Z,4.90
2023-04-18T23:51:43.818Z,5.00
2023-04-18T23:54:49.924Z,5.50
2023-04-18T23:57:56.431Z,5.60
